Terminal Aerodrome Forecast
Issued by NWS Boise, ID

Home | Current Version | Previous Version | Text Only | Print | Product List | Glossary On
Versions: 1 2 3 4 5 6 7 8 9 10 11 12 13 14 15 16 17 18 19 20 21 22 23 24 25
000
FTUS45 KBOI 301753
TAFBNO
TAF
KBNO 301753Z 3018/3118 26012G22KT P6SM SCT100 BKN200
     FM302100 28012KT P6SM VCSH SCT070 BKN100
     FM310300 26007KT P6SM SCT080 BKN150
     FM310600 26006KT P6SM SCT100
     FM311400 27010KT P6SM SCT200=

USA.gov is the U.S. government's official web portal to all federal, state and local government web resources and services.